sensor_id;sensor_type;location;lat;lon;timestamp;P1;durP1;ratioP1;P2;durP2;ratioP2
64543;SDS011;50936;51.660;5.616;2022-07-24T00:01:25;16.80;;;11.15;;
64543;SDS011;50936;51.660;5.616;2022-07-24T00:03:52;18.17;;;11.18;;
64543;SDS011;50936;51.660;5.616;2022-07-24T00:06:20;19.00;;;11.77;;
64543;SDS011;50936;51.660;5.616;2022-07-24T00:08:47;17.67;;;11.30;;
64543;SDS011;50936;51.660;5.616;2022-07-24T00:11:15;21.67;;;11.57;;
64543;SDS011;50936;51.660;5.616;2022-07-24T00:13:42;18.27;;;11.68;;
64543;SDS011;50936;51.660;5.616;2022-07-24T00:16:09;18.35;;;11.48;;
64543;SDS011;50936;51.660;5.616;2022-07-24T00:18:36;20.75;;;11.02;;
64543;SDS011;50936;51.660;5.616;2022-07-24T00:21:03;17.77;;;11.63;;
64543;SDS011;50936;51.660;5.616;2022-07-24T00:23:30;15.55;;;10.93;;
64543;SDS011;50936;51.660;5.616;2022-07-24T00:25:58;17.10;;;11.38;;
64543;SDS011;50936;51.660;5.616;2022-07-24T00:28:26;17.75;;;11.35;;
64543;SDS011;50936;51.660;5.616;2022-07-24T00:30:53;17.42;;;10.57;;
64543;SDS011;50936;51.660;5.616;2022-07-24T00:33:20;18.52;;;11.27;;
64543;SDS011;50936;51.660;5.616;2022-07-24T00:35:47;17.67;;;11.27;;
64543;SDS011;50936;51.660;5.616;2022-07-24T00:38:14;20.10;;;11.85;;
64543;SDS011;50936;51.660;5.616;2022-07-24T00:40:41;21.50;;;12.05;;
64543;SDS011;50936;51.660;5.616;2022-07-24T00:43:08;18.60;;;11.70;;
64543;SDS011;50936;51.660;5.616;2022-07-24T00:45:35;16.60;;;11.30;;
64543;SDS011;50936;51.660;5.616;2022-07-24T00:48:03;18.40;;;11.73;;
64543;SDS011;50936;51.660;5.616;2022-07-24T00:50:33;18.13;;;10.90;;
64543;SDS011;50936;51.660;5.616;2022-07-24T00:53:00;18.13;;;11.57;;
64543;SDS011;50936;51.660;5.616;2022-07-24T00:55:27;17.17;;;11.20;;
64543;SDS011;50936;51.660;5.616;2022-07-24T00:57:55;16.25;;;10.95;;
64543;SDS011;50936;51.660;5.616;2022-07-24T01:00:22;24.58;;;12.02;;
64543;SDS011;50936;51.660;5.616;2022-07-24T01:02:49;22.65;;;12.27;;
64543;SDS011;50936;51.660;5.616;2022-07-24T01:05:16;18.55;;;11.45;;
64543;SDS011;50936;51.660;5.616;2022-07-24T01:07:45;19.50;;;12.00;;
64543;SDS011;50936;51.660;5.616;2022-07-24T01:10:13;18.98;;;12.35;;
64543;SDS011;50936;51.660;5.616;2022-07-24T01:12:41;19.38;;;11.85;;
64543;SDS011;50936;51.660;5.616;2022-07-24T01:15:09;19.20;;;12.07;;
64543;SDS011;50936;51.660;5.616;2022-07-24T01:17:39;21.27;;;12.15;;
64543;SDS011;50936;51.660;5.616;2022-07-24T01:20:08;18.63;;;12.15;;
64543;SDS011;50936;51.660;5.616;2022-07-24T01:22:36;22.27;;;11.98;;
64543;SDS011;50936;51.660;5.616;2022-07-24T01:25:03;18.88;;;11.82;;
64543;SDS011;50936;51.660;5.616;2022-07-24T01:27:31;20.00;;;11.75;;
64543;SDS011;50936;51.660;5.616;2022-07-24T01:29:58;21.98;;;11.32;;
64543;SDS011;50936;51.660;5.616;2022-07-24T01:32:24;19.70;;;12.25;;
64543;SDS011;50936;51.660;5.616;2022-07-24T01:34:51;20.75;;;12.32;;
64543;SDS011;50936;51.660;5.616;2022-07-24T01:37:18;19.23;;;11.52;;
64543;SDS011;50936;51.660;5.616;2022-07-24T01:39:45;17.65;;;11.52;;
64543;SDS011;50936;51.660;5.616;2022-07-24T01:42:12;20.02;;;11.70;;
64543;SDS011;50936;51.660;5.616;2022-07-24T01:44:39;19.40;;;11.32;;
64543;SDS011;50936;51.660;5.616;2022-07-24T01:47:06;19.05;;;11.38;;
64543;SDS011;50936;51.660;5.616;2022-07-24T01:49:33;20.77;;;11.65;;
64543;SDS011;50936;51.660;5.616;2022-07-24T01:52:00;20.00;;;11.48;;
64543;SDS011;50936;51.660;5.616;2022-07-24T01:54:26;20.70;;;11.60;;
64543;SDS011;50936;51.660;5.616;2022-07-24T01:56:53;18.88;;;11.40;;
64543;SDS011;50936;51.660;5.616;2022-07-24T01:59:20;16.63;;;11.30;;
64543;SDS011;50936;51.660;5.616;2022-07-24T02:01:47;18.23;;;12.02;;
64543;SDS011;50936;51.660;5.616;2022-07-24T02:04:14;22.05;;;11.55;;
64543;SDS011;50936;51.660;5.616;2022-07-24T02:06:41;18.13;;;11.07;;
64543;SDS011;50936;51.660;5.616;2022-07-24T02:09:07;21.73;;;11.93;;
64543;SDS011;50936;51.660;5.616;2022-07-24T02:11:35;18.05;;;11.82;;
64543;SDS011;50936;51.660;5.616;2022-07-24T02:14:01;17.73;;;11.18;;
64543;SDS011;50936;51.660;5.616;2022-07-24T02:16:28;20.27;;;11.35;;
64543;SDS011;50936;51.660;5.616;2022-07-24T02:18:56;20.70;;;11.43;;
64543;SDS011;50936;51.660;5.616;2022-07-24T02:21:22;17.27;;;11.27;;
64543;SDS011;50936;51.660;5.616;2022-07-24T02:23:49;19.38;;;10.93;;
64543;SDS011;50936;51.660;5.616;2022-07-24T02:26:16;16.40;;;10.10;;
64543;SDS011;50936;51.660;5.616;2022-07-24T02:28:43;19.65;;;10.57;;
64543;SDS011;50936;51.660;5.616;2022-07-24T02:31:10;17.15;;;11.85;;
64543;SDS011;50936;51.660;5.616;2022-07-24T02:33:37;19.23;;;11.65;;
64543;SDS011;50936;51.660;5.616;2022-07-24T02:36:04;21.63;;;12.70;;
64543;SDS011;50936;51.660;5.616;2022-07-24T02:38:31;18.55;;;11.60;;
64543;SDS011;50936;51.660;5.616;2022-07-24T02:40:58;22.58;;;11.85;;
64543;SDS011;50936;51.660;5.616;2022-07-24T02:43:25;21.92;;;12.82;;
64543;SDS011;50936;51.660;5.616;2022-07-24T02:45:53;19.33;;;12.93;;
64543;SDS011;50936;51.660;5.616;2022-07-24T02:48:20;21.50;;;13.15;;
64543;SDS011;50936;51.660;5.616;2022-07-24T02:50:47;25.23;;;13.07;;
64543;SDS011;50936;51.660;5.616;2022-07-24T02:53:14;19.90;;;12.23;;
64543;SDS011;50936;51.660;5.616;2022-07-24T02:55:41;21.60;;;12.07;;
64543;SDS011;50936;51.660;5.616;2022-07-24T02:58:08;21.92;;;12.02;;
64543;SDS011;50936;51.660;5.616;2022-07-24T03:00:35;18.50;;;11.80;;
64543;SDS011;50936;51.660;5.616;2022-07-24T03:03:02;18.40;;;12.13;;
64543;SDS011;50936;51.660;5.616;2022-07-24T03:05:29;19.60;;;12.60;;
64543;SDS011;50936;51.660;5.616;2022-07-24T03:07:56;22.23;;;12.82;;
64543;SDS011;50936;51.660;5.616;2022-07-24T03:10:23;23.02;;;13.00;;
64543;SDS011;50936;51.660;5.616;2022-07-24T03:12:50;21.00;;;12.52;;
64543;SDS011;50936;51.660;5.616;2022-07-24T03:15:16;19.73;;;12.80;;
64543;SDS011;50936;51.660;5.616;2022-07-24T03:17:50;21.35;;;12.27;;
64543;SDS011;50936;51.660;5.616;2022-07-24T03:20:23;19.00;;;11.85;;
64543;SDS011;50936;51.660;5.616;2022-07-24T03:22:52;19.80;;;12.40;;
64543;SDS011;50936;51.660;5.616;2022-07-24T03:25:19;19.80;;;12.27;;
64543;SDS011;50936;51.660;5.616;2022-07-24T03:27:47;21.85;;;12.55;;
64543;SDS011;50936;51.660;5.616;2022-07-24T03:30:15;21.42;;;12.55;;
64543;SDS011;50936;51.660;5.616;2022-07-24T03:32:44;19.77;;;12.85;;
64543;SDS011;50936;51.660;5.616;2022-07-24T03:35:11;19.45;;;11.85;;
64543;SDS011;50936;51.660;5.616;2022-07-24T03:37:38;21.27;;;11.52;;
64543;SDS011;50936;51.660;5.616;2022-07-24T03:40:05;22.10;;;11.95;;
64543;SDS011;50936;51.660;5.616;2022-07-24T03:42:33;20.67;;;11.75;;
64543;SDS011;50936;51.660;5.616;2022-07-24T03:45:00;22.17;;;13.23;;
64543;SDS011;50936;51.660;5.616;2022-07-24T03:47:27;21.98;;;12.25;;
64543;SDS011;50936;51.660;5.616;2022-07-24T03:49:54;21.73;;;12.35;;
64543;SDS011;50936;51.660;5.616;2022-07-24T03:52:21;20.33;;;12.40;;
64543;SDS011;50936;51.660;5.616;2022-07-24T03:54:50;18.60;;;11.90;;
64543;SDS011;50936;51.660;5.616;2022-07-24T03:57:17;18.85;;;13.25;;
64543;SDS011;50936;51.660;5.616;2022-07-24T03:59:44;21.05;;;12.70;;
64543;SDS011;50936;51.660;5.616;2022-07-24T04:02:11;21.38;;;12.80;;
64543;SDS011;50936;51.660;5.616;2022-07-24T04:04:38;24.63;;;13.25;;
64543;SDS011;50936;51.660;5.616;2022-07-24T04:07:05;19.73;;;12.75;;
64543;SDS011;50936;51.660;5.616;2022-07-24T04:09:32;20.70;;;13.05;;
64543;SDS011;50936;51.660;5.616;2022-07-24T04:11:59;21.27;;;12.95;;
64543;SDS011;50936;51.660;5.616;2022-07-24T04:14:26;21.83;;;13.25;;
64543;SDS011;50936;51.660;5.616;2022-07-24T04:16:53;21.92;;;13.65;;
64543;SDS011;50936;51.660;5.616;2022-07-24T04:19:20;21.08;;;13.80;;
64543;SDS011;50936;51.660;5.616;2022-07-24T04:21:47;24.25;;;13.73;;
64543;SDS011;50936;51.660;5.616;2022-07-24T04:24:15;23.27;;;13.75;;
64543;SDS011;50936;51.660;5.616;2022-07-24T04:26:42;23.80;;;14.63;;
64543;SDS011;50936;51.660;5.616;2022-07-24T04:29:09;22.80;;;14.43;;
64543;SDS011;50936;51.660;5.616;2022-07-24T04:31:37;26.20;;;14.98;;
64543;SDS011;50936;51.660;5.616;2022-07-24T04:34:04;25.35;;;14.65;;
64543;SDS011;50936;51.660;5.616;2022-07-24T04:36:31;26.85;;;15.70;;
64543;SDS011;50936;51.660;5.616;2022-07-24T04:38:58;24.48;;;14.73;;
64543;SDS011;50936;51.660;5.616;2022-07-24T04:41:33;21.83;;;14.70;;
64543;SDS011;50936;51.660;5.616;2022-07-24T04:44:00;26.83;;;14.60;;
64543;SDS011;50936;51.660;5.616;2022-07-24T04:46:27;26.33;;;15.55;;
64543;SDS011;50936;51.660;5.616;2022-07-24T04:48:54;25.00;;;15.57;;
64543;SDS011;50936;51.660;5.616;2022-07-24T04:51:21;27.60;;;14.93;;
64543;SDS011;50936;51.660;5.616;2022-07-24T04:53:49;24.38;;;14.93;;
64543;SDS011;50936;51.660;5.616;2022-07-24T04:56:19;25.88;;;15.27;;
64543;SDS011;50936;51.660;5.616;2022-07-24T04:58:47;26.25;;;16.10;;
64543;SDS011;50936;51.660;5.616;2022-07-24T05:01:14;26.92;;;16.10;;
64543;SDS011;50936;51.660;5.616;2022-07-24T05:03:42;24.58;;;15.35;;
64543;SDS011;50936;51.660;5.616;2022-07-24T05:06:09;27.08;;;16.98;;
64543;SDS011;50936;51.660;5.616;2022-07-24T05:08:36;26.98;;;16.73;;
64543;SDS011;50936;51.660;5.616;2022-07-24T05:11:03;31.27;;;17.30;;
64543;SDS011;50936;51.660;5.616;2022-07-24T05:13:30;31.55;;;17.52;;
64543;SDS011;50936;51.660;5.616;2022-07-24T05:15:56;27.17;;;17.50;;
64543;SDS011;50936;51.660;5.616;2022-07-24T05:18:23;34.08;;;18.13;;
64543;SDS011;50936;51.660;5.616;2022-07-24T05:20:50;32.22;;;18.88;;
64543;SDS011;50936;51.660;5.616;2022-07-24T05:23:17;31.17;;;18.55;;
64543;SDS011;50936;51.660;5.616;2022-07-24T05:25:44;32.13;;;19.65;;
64543;SDS011;50936;51.660;5.616;2022-07-24T05:28:15;35.13;;;21.23;;
64543;SDS011;50936;51.660;5.616;2022-07-24T05:30:42;33.78;;;22.00;;
64543;SDS011;50936;51.660;5.616;2022-07-24T05:33:09;33.80;;;20.85;;
64543;SDS011;50936;51.660;5.616;2022-07-24T05:35:36;36.50;;;21.65;;
64543;SDS011;50936;51.660;5.616;2022-07-24T05:38:03;39.00;;;21.98;;
64543;SDS011;50936;51.660;5.616;2022-07-24T05:40:30;36.85;;;21.80;;
64543;SDS011;50936;51.660;5.616;2022-07-24T05:42:57;44.10;;;23.67;;
64543;SDS011;50936;51.660;5.616;2022-07-24T05:45:24;39.75;;;23.45;;
64543;SDS011;50936;51.660;5.616;2022-07-24T05:47:50;40.45;;;24.02;;
64543;SDS011;50936;51.660;5.616;2022-07-24T05:50:17;43.05;;;23.33;;
64543;SDS011;50936;51.660;5.616;2022-07-24T05:52:44;40.70;;;22.88;;
64543;SDS011;50936;51.660;5.616;2022-07-24T05:55:11;44.22;;;25.10;;
64543;SDS011;50936;51.660;5.616;2022-07-24T05:57:42;41.33;;;22.95;;
64543;SDS011;50936;51.660;5.616;2022-07-24T06:00:15;41.17;;;23.30;;
64543;SDS011;50936;51.660;5.616;2022-07-24T06:02:48;45.83;;;23.75;;
64543;SDS011;50936;51.660;5.616;2022-07-24T06:05:16;46.38;;;24.17;;
64543;SDS011;50936;51.660;5.616;2022-07-24T06:07:43;46.08;;;25.35;;
64543;SDS011;50936;51.660;5.616;2022-07-24T06:10:10;44.58;;;26.08;;
64543;SDS011;50936;51.660;5.616;2022-07-24T06:12:40;44.70;;;24.90;;
64543;SDS011;50936;51.660;5.616;2022-07-24T06:15:09;43.60;;;24.48;;
64543;SDS011;50936;51.660;5.616;2022-07-24T06:17:36;45.92;;;23.73;;
64543;SDS011;50936;51.660;5.616;2022-07-24T06:20:05;43.63;;;23.52;;
64543;SDS011;50936;51.660;5.616;2022-07-24T06:22:34;43.05;;;23.60;;
64543;SDS011;50936;51.660;5.616;2022-07-24T06:25:01;44.30;;;23.73;;
64543;SDS011;50936;51.660;5.616;2022-07-24T06:27:28;44.22;;;25.13;;
64543;SDS011;50936;51.660;5.616;2022-07-24T06:29:54;41.97;;;24.08;;
64543;SDS011;50936;51.660;5.616;2022-07-24T06:32:22;44.58;;;23.92;;
64543;SDS011;50936;51.660;5.616;2022-07-24T06:34:49;43.05;;;23.20;;
64543;SDS011;50936;51.660;5.616;2022-07-24T06:37:16;45.42;;;23.38;;
64543;SDS011;50936;51.660;5.616;2022-07-24T06:39:45;39.45;;;21.33;;
64543;SDS011;50936;51.660;5.616;2022-07-24T06:42:12;40.45;;;22.58;;
64543;SDS011;50936;51.660;5.616;2022-07-24T06:44:39;44.20;;;22.58;;
64543;SDS011;50936;51.660;5.616;2022-07-24T06:47:06;45.90;;;22.35;;
64543;SDS011;50936;51.660;5.616;2022-07-24T06:49:33;37.10;;;21.48;;
64543;SDS011;50936;51.660;5.616;2022-07-24T06:52:00;36.58;;;21.10;;
64543;SDS011;50936;51.660;5.616;2022-07-24T06:54:26;38.45;;;19.90;;
64543;SDS011;50936;51.660;5.616;2022-07-24T06:56:53;34.03;;;18.90;;
64543;SDS011;50936;51.660;5.616;2022-07-24T06:59:20;33.60;;;18.27;;
64543;SDS011;50936;51.660;5.616;2022-07-24T07:01:47;29.00;;;17.23;;
64543;SDS011;50936;51.660;5.616;2022-07-24T07:04:14;29.75;;;16.70;;
64543;SDS011;50936;51.660;5.616;2022-07-24T07:06:41;28.85;;;15.75;;
64543;SDS011;50936;51.660;5.616;2022-07-24T07:09:09;27.67;;;14.55;;
64543;SDS011;50936;51.660;5.616;2022-07-24T07:11:37;21.23;;;12.48;;
64543;SDS011;50936;51.660;5.616;2022-07-24T07:14:04;24.27;;;12.10;;
64543;SDS011;50936;51.660;5.616;2022-07-24T07:16:31;16.98;;;9.95;;
64543;SDS011;50936;51.660;5.616;2022-07-24T07:18:58;17.38;;;10.10;;
64543;SDS011;50936;51.660;5.616;2022-07-24T07:21:25;18.23;;;9.90;;
64543;SDS011;50936;51.660;5.616;2022-07-24T07:23:52;14.82;;;7.82;;
64543;SDS011;50936;51.660;5.616;2022-07-24T07:26:21;18.67;;;9.77;;
64543;SDS011;50936;51.660;5.616;2022-07-24T07:28:48;16.67;;;9.18;;
64543;SDS011;50936;51.660;5.616;2022-07-24T07:31:15;12.90;;;8.57;;
64543;SDS011;50936;51.660;5.616;2022-07-24T07:33:43;14.88;;;8.68;;
64543;SDS011;50936;51.660;5.616;2022-07-24T07:36:09;14.63;;;9.00;;
64543;SDS011;50936;51.660;5.616;2022-07-24T07:38:36;14.82;;;8.98;;
64543;SDS011;50936;51.660;5.616;2022-07-24T07:41:06;12.45;;;7.75;;
64543;SDS011;50936;51.660;5.616;2022-07-24T07:43:36;14.45;;;8.00;;
64543;SDS011;50936;51.660;5.616;2022-07-24T07:46:03;15.40;;;8.38;;
64543;SDS011;50936;51.660;5.616;2022-07-24T07:48:31;12.55;;;7.60;;
64543;SDS011;50936;51.660;5.616;2022-07-24T07:50:59;12.07;;;7.25;;
64543;SDS011;50936;51.660;5.616;2022-07-24T07:53:26;10.82;;;7.07;;
64543;SDS011;50936;51.660;5.616;2022-07-24T07:55:52;11.00;;;6.18;;
64543;SDS011;50936;51.660;5.616;2022-07-24T07:58:19;11.52;;;6.10;;
64543;SDS011;50936;51.660;5.616;2022-07-24T08:00:46;8.90;;;5.82;;
64543;SDS011;50936;51.660;5.616;2022-07-24T08:03:13;9.32;;;5.22;;
64543;SDS011;50936;51.660;5.616;2022-07-24T08:05:49;6.35;;;4.40;;
64543;SDS011;50936;51.660;5.616;2022-07-24T08:08:24;8.25;;;4.47;;
64543;SDS011;50936;51.660;5.616;2022-07-24T08:10:52;7.68;;;4.30;;
64543;SDS011;50936;51.660;5.616;2022-07-24T08:13:19;6.93;;;3.70;;
64543;SDS011;50936;51.660;5.616;2022-07-24T08:15:46;6.57;;;4.00;;
64543;SDS011;50936;51.660;5.616;2022-07-24T08:18:13;8.45;;;4.28;;
64543;SDS011;50936;51.660;5.616;2022-07-24T08:20:40;8.32;;;4.20;;
64543;SDS011;50936;51.660;5.616;2022-07-24T08:23:09;6.85;;;4.20;;
64543;SDS011;50936;51.660;5.616;2022-07-24T08:25:36;5.10;;;3.58;;
64543;SDS011;50936;51.660;5.616;2022-07-24T08:28:03;5.05;;;3.10;;
64543;SDS011;50936;51.660;5.616;2022-07-24T08:30:30;4.57;;;2.58;;
64543;SDS011;50936;51.660;5.616;2022-07-24T08:32:57;5.65;;;2.60;;
64543;SDS011;50936;51.660;5.616;2022-07-24T08:35:24;4.20;;;2.65;;
64543;SDS011;50936;51.660;5.616;2022-07-24T08:37:58;5.35;;;2.38;;
64543;SDS011;50936;51.660;5.616;2022-07-24T08:40:25;3.92;;;2.60;;
64543;SDS011;50936;51.660;5.616;2022-07-24T08:42:58;4.63;;;3.05;;
64543;SDS011;50936;51.660;5.616;2022-07-24T08:45:25;3.75;;;2.53;;
64543;SDS011;50936;51.660;5.616;2022-07-24T08:47:52;4.20;;;2.40;;
64543;SDS011;50936;51.660;5.616;2022-07-24T08:50:21;4.57;;;2.30;;
64543;SDS011;50936;51.660;5.616;2022-07-24T08:52:48;4.25;;;2.35;;
64543;SDS011;50936;51.660;5.616;2022-07-24T08:55:16;3.97;;;2.13;;
64543;SDS011;50936;51.660;5.616;2022-07-24T08:57:43;4.32;;;2.58;;
64543;SDS011;50936;51.660;5.616;2022-07-24T09:00:10;4.07;;;2.58;;
64543;SDS011;50936;51.660;5.616;2022-07-24T09:02:38;3.97;;;2.30;;
64543;SDS011;50936;51.660;5.616;2022-07-24T09:05:07;3.80;;;2.53;;
64543;SDS011;50936;51.660;5.616;2022-07-24T09:07:34;4.28;;;2.05;;
64543;SDS011;50936;51.660;5.616;2022-07-24T09:10:05;3.05;;;2.00;;
64543;SDS011;50936;51.660;5.616;2022-07-24T09:12:38;3.47;;;2.15;;
64543;SDS011;50936;51.660;5.616;2022-07-24T09:15:14;3.72;;;2.50;;
64543;SDS011;50936;51.660;5.616;2022-07-24T09:17:48;4.18;;;2.17;;
64543;SDS011;50936;51.660;5.616;2022-07-24T09:20:21;4.13;;;1.92;;
64543;SDS011;50936;51.660;5.616;2022-07-24T09:22:50;4.05;;;2.28;;
64543;SDS011;50936;51.660;5.616;2022-07-24T09:25:22;4.50;;;2.55;;
64543;SDS011;50936;51.660;5.616;2022-07-24T09:27:57;4.63;;;2.40;;
64543;SDS011;50936;51.660;5.616;2022-07-24T09:30:28;3.83;;;2.13;;
64543;SDS011;50936;51.660;5.616;2022-07-24T09:32:59;3.78;;;2.25;;
64543;SDS011;50936;51.660;5.616;2022-07-24T09:35:49;4.75;;;2.83;;
64543;SDS011;50936;51.660;5.616;2022-07-24T09:38:24;4.22;;;2.40;;
64543;SDS011;50936;51.660;5.616;2022-07-24T09:40:52;4.72;;;2.50;;
64543;SDS011;50936;51.660;5.616;2022-07-24T09:46:04;5.05;;;2.58;;
64543;SDS011;50936;51.660;5.616;2022-07-24T09:48:40;5.50;;;2.72;;
64543;SDS011;50936;51.660;5.616;2022-07-24T09:51:27;5.15;;;2.33;;
64543;SDS011;50936;51.660;5.616;2022-07-24T09:53:57;6.32;;;2.80;;
64543;SDS011;50936;51.660;5.616;2022-07-24T09:56:26;4.38;;;2.53;;
64543;SDS011;50936;51.660;5.616;2022-07-24T09:58:55;3.53;;;2.33;;
64543;SDS011;50936;51.660;5.616;2022-07-24T10:01:25;5.22;;;2.75;;
64543;SDS011;50936;51.660;5.616;2022-07-24T10:03:55;4.38;;;2.63;;
64543;SDS011;50936;51.660;5.616;2022-07-24T10:06:23;5.22;;;2.75;;
64543;SDS011;50936;51.660;5.616;2022-07-24T10:08:53;4.93;;;2.70;;
64543;SDS011;50936;51.660;5.616;2022-07-24T10:11:22;7.15;;;2.70;;
64543;SDS011;50936;51.660;5.616;2022-07-24T10:13:49;4.10;;;2.42;;
64543;SDS011;50936;51.660;5.616;2022-07-24T10:16:25;4.30;;;2.80;;
64543;SDS011;50936;51.660;5.616;2022-07-24T10:26:46;4.07;;;2.60;;
64543;SDS011;50936;51.660;5.616;2022-07-24T10:29:23;4.47;;;2.38;;
64543;SDS011;50936;51.660;5.616;2022-07-24T10:31:51;4.40;;;2.60;;
64543;SDS011;50936;51.660;5.616;2022-07-24T10:37:09;6.55;;;2.92;;
64543;SDS011;50936;51.660;5.616;2022-07-24T10:45:32;4.95;;;2.65;;
64543;SDS011;50936;51.660;5.616;2022-07-24T10:53:26;6.00;;;2.60;;
64543;SDS011;50936;51.660;5.616;2022-07-24T11:01:39;4.55;;;2.47;;
64543;SDS011;50936;51.660;5.616;2022-07-24T11:06:51;4.25;;;2.50;;
64543;SDS011;50936;51.660;5.616;2022-07-24T11:12:42;4.15;;;2.35;;
64543;SDS011;50936;51.660;5.616;2022-07-24T11:15:13;5.00;;;2.67;;
64543;SDS011;50936;51.660;5.616;2022-07-24T11:18:14;4.88;;;2.95;;
64543;SDS011;50936;51.660;5.616;2022-07-24T11:20:41;5.55;;;2.78;;
64543;SDS011;50936;51.660;5.616;2022-07-24T11:23:18;4.50;;;2.35;;
64543;SDS011;50936;51.660;5.616;2022-07-24T11:25:49;5.05;;;2.70;;
64543;SDS011;50936;51.660;5.616;2022-07-24T11:28:15;4.22;;;2.53;;
64543;SDS011;50936;51.660;5.616;2022-07-24T11:30:43;8.30;;;2.72;;
64543;SDS011;50936;51.660;5.616;2022-07-24T11:33:16;4.55;;;2.63;;
64543;SDS011;50936;51.660;5.616;2022-07-24T11:35:48;5.18;;;2.22;;
64543;SDS011;50936;51.660;5.616;2022-07-24T11:38:15;6.32;;;2.88;;
64543;SDS011;50936;51.660;5.616;2022-07-24T11:40:43;4.15;;;2.65;;
64543;SDS011;50936;51.660;5.616;2022-07-24T11:43:09;3.60;;;2.28;;
64543;SDS011;50936;51.660;5.616;2022-07-24T11:45:37;4.57;;;2.42;;
64543;SDS011;50936;51.660;5.616;2022-07-24T11:48:06;4.65;;;2.67;;
64543;SDS011;50936;51.660;5.616;2022-07-24T11:50:44;3.85;;;2.80;;
64543;SDS011;50936;51.660;5.616;2022-07-24T11:53:10;7.07;;;2.72;;
64543;SDS011;50936;51.660;5.616;2022-07-24T11:55:38;4.63;;;2.58;;
64543;SDS011;50936;51.660;5.616;2022-07-24T11:58:05;5.00;;;2.47;;
64543;SDS011;50936;51.660;5.616;2022-07-24T12:00:51;3.67;;;2.42;;
64543;SDS011;50936;51.660;5.616;2022-07-24T12:03:18;4.20;;;2.55;;
64543;SDS011;50936;51.660;5.616;2022-07-24T12:05:46;4.40;;;2.80;;
64543;SDS011;50936;51.660;5.616;2022-07-24T12:08:17;5.55;;;2.85;;
64543;SDS011;50936;51.660;5.616;2022-07-24T12:10:54;4.15;;;2.80;;
64543;SDS011;50936;51.660;5.616;2022-07-24T12:13:27;4.25;;;2.85;;
64543;SDS011;50936;51.660;5.616;2022-07-24T12:15:56;4.00;;;2.80;;
64543;SDS011;50936;51.660;5.616;2022-07-24T12:18:23;4.25;;;2.67;;
64543;SDS011;50936;51.660;5.616;2022-07-24T12:20:58;4.00;;;2.70;;
64543;SDS011;50936;51.660;5.616;2022-07-24T12:23:27;6.90;;;2.83;;
64543;SDS011;50936;51.660;5.616;2022-07-24T12:25:59;5.10;;;2.65;;
64543;SDS011;50936;51.660;5.616;2022-07-24T12:28:27;4.63;;;2.90;;
64543;SDS011;50936;51.660;5.616;2022-07-24T12:30:54;5.22;;;2.80;;
64543;SDS011;50936;51.660;5.616;2022-07-24T12:33:22;3.60;;;2.53;;
64543;SDS011;50936;51.660;5.616;2022-07-24T12:38:30;4.38;;;2.67;;
64543;SDS011;50936;51.660;5.616;2022-07-24T12:49:00;4.50;;;2.78;;
64543;SDS011;50936;51.660;5.616;2022-07-24T12:51:53;5.00;;;2.92;;
64543;SDS011;50936;51.660;5.616;2022-07-24T12:54:26;4.75;;;2.70;;
64543;SDS011;50936;51.660;5.616;2022-07-24T12:56:59;4.07;;;2.50;;
64543;SDS011;50936;51.660;5.616;2022-07-24T12:59:43;4.32;;;2.50;;
64543;SDS011;50936;51.660;5.616;2022-07-24T13:02:22;6.07;;;2.88;;
64543;SDS011;50936;51.660;5.616;2022-07-24T13:05:00;5.43;;;2.53;;
64543;SDS011;50936;51.660;5.616;2022-07-24T13:07:27;4.70;;;2.42;;
64543;SDS011;50936;51.660;5.616;2022-07-24T13:09:54;4.03;;;2.25;;
64543;SDS011;50936;51.660;5.616;2022-07-24T13:12:22;5.28;;;2.15;;
64543;SDS011;50936;51.660;5.616;2022-07-24T13:14:49;4.70;;;2.38;;
64543;SDS011;50936;51.660;5.616;2022-07-24T13:17:17;4.05;;;2.65;;
64543;SDS011;50936;51.660;5.616;2022-07-24T13:19:47;4.13;;;2.42;;
64543;SDS011;50936;51.660;5.616;2022-07-24T13:22:17;4.70;;;2.47;;
64543;SDS011;50936;51.660;5.616;2022-07-24T13:24:44;3.40;;;2.50;;
64543;SDS011;50936;51.660;5.616;2022-07-24T13:27:12;5.05;;;2.80;;
64543;SDS011;50936;51.660;5.616;2022-07-24T13:29:41;4.70;;;2.35;;
64543;SDS011;50936;51.660;5.616;2022-07-24T13:32:09;5.18;;;2.40;;
64543;SDS011;50936;51.660;5.616;2022-07-24T13:34:36;4.13;;;2.50;;
64543;SDS011;50936;51.660;5.616;2022-07-24T13:37:03;3.70;;;2.42;;
64543;SDS011;50936;51.660;5.616;2022-07-24T13:39:33;3.58;;;2.30;;
64543;SDS011;50936;51.660;5.616;2022-07-24T13:42:03;3.72;;;2.30;;
64543;SDS011;50936;51.660;5.616;2022-07-24T13:44:30;3.85;;;2.30;;
64543;SDS011;50936;51.660;5.616;2022-07-24T13:46:57;4.88;;;2.50;;
64543;SDS011;50936;51.660;5.616;2022-07-24T13:49:24;4.43;;;2.42;;
64543;SDS011;50936;51.660;5.616;2022-07-24T13:51:51;3.15;;;2.05;;
64543;SDS011;50936;51.660;5.616;2022-07-24T13:54:18;3.83;;;2.72;;
64543;SDS011;50936;51.660;5.616;2022-07-24T13:56:45;3.25;;;1.98;;
64543;SDS011;50936;51.660;5.616;2022-07-24T13:59:12;4.07;;;2.50;;
64543;SDS011;50936;51.660;5.616;2022-07-24T14:01:39;3.78;;;1.90;;
64543;SDS011;50936;51.660;5.616;2022-07-24T14:04:06;5.57;;;2.78;;
64543;SDS011;50936;51.660;5.616;2022-07-24T14:06:53;3.42;;;2.38;;
64543;SDS011;50936;51.660;5.616;2022-07-24T14:09:22;5.50;;;2.55;;
64543;SDS011;50936;51.660;5.616;2022-07-24T14:11:49;3.95;;;2.35;;
64543;SDS011;50936;51.660;5.616;2022-07-24T14:14:17;3.47;;;2.47;;
64543;SDS011;50936;51.660;5.616;2022-07-24T14:16:45;3.88;;;2.38;;
64543;SDS011;50936;51.660;5.616;2022-07-24T14:19:12;3.90;;;2.45;;
64543;SDS011;50936;51.660;5.616;2022-07-24T14:21:40;3.90;;;2.50;;
64543;SDS011;50936;51.660;5.616;2022-07-24T14:24:07;4.57;;;2.58;;
64543;SDS011;50936;51.660;5.616;2022-07-24T14:26:41;4.22;;;2.63;;
64543;SDS011;50936;51.660;5.616;2022-07-24T14:29:10;3.78;;;2.47;;
64543;SDS011;50936;51.660;5.616;2022-07-24T14:31:37;3.65;;;2.33;;
64543;SDS011;50936;51.660;5.616;2022-07-24T14:34:05;5.88;;;2.70;;
64543;SDS011;50936;51.660;5.616;2022-07-24T14:36:32;5.20;;;3.25;;
64543;SDS011;50936;51.660;5.616;2022-07-24T14:38:59;5.32;;;2.45;;
64543;SDS011;50936;51.660;5.616;2022-07-24T14:41:26;4.75;;;2.63;;
64543;SDS011;50936;51.660;5.616;2022-07-24T14:43:53;3.85;;;2.50;;
64543;SDS011;50936;51.660;5.616;2022-07-24T14:46:20;4.47;;;2.33;;
64543;SDS011;50936;51.660;5.616;2022-07-24T14:48:47;4.70;;;2.50;;
64543;SDS011;50936;51.660;5.616;2022-07-24T14:51:13;5.03;;;2.90;;
64543;SDS011;50936;51.660;5.616;2022-07-24T14:53:40;4.20;;;2.38;;
64543;SDS011;50936;51.660;5.616;2022-07-24T14:56:07;5.30;;;3.00;;
64543;SDS011;50936;51.660;5.616;2022-07-24T14:58:34;4.55;;;2.75;;
64543;SDS011;50936;51.660;5.616;2022-07-24T15:01:01;4.82;;;2.55;;
64543;SDS011;50936;51.660;5.616;2022-07-24T15:03:28;4.07;;;2.30;;
64543;SDS011;50936;51.660;5.616;2022-07-24T15:05:55;5.53;;;2.42;;
64543;SDS011;50936;51.660;5.616;2022-07-24T15:08:22;3.67;;;2.40;;
64543;SDS011;50936;51.660;5.616;2022-07-24T15:10:49;4.10;;;2.53;;
64543;SDS011;50936;51.660;5.616;2022-07-24T15:13:16;4.93;;;2.60;;
64543;SDS011;50936;51.660;5.616;2022-07-24T15:15:43;4.60;;;2.50;;
64543;SDS011;50936;51.660;5.616;2022-07-24T15:18:11;4.25;;;2.17;;
64543;SDS011;50936;51.660;5.616;2022-07-24T15:20:38;3.50;;;2.38;;
64543;SDS011;50936;51.660;5.616;2022-07-24T15:23:05;4.32;;;2.47;;
64543;SDS011;50936;51.660;5.616;2022-07-24T15:25:32;4.25;;;2.58;;
64543;SDS011;50936;51.660;5.616;2022-07-24T15:28:00;3.95;;;2.63;;